createdAt,value
2023-04-22T00:00:05.315Z,11.28
2023-04-22T00:01:04.384Z,11.28
2023-04-22T00:02:04.671Z,11.25
2023-04-22T00:03:04.697Z,11.30
2023-04-22T00:04:05.431Z,11.30
2023-04-22T00:05:04.399Z,11.31
2023-04-22T00:06:04.410Z,11.28
2023-04-22T00:07:04.410Z,11.22
2023-04-22T00:08:05.321Z,11.19
2023-04-22T00:09:05.227Z,11.12
2023-04-22T00:10:05.131Z,11.05
2023-04-22T00:11:04.325Z,11.00
2023-04-22T00:12:05.202Z,10.94
2023-04-22T00:13:04.316Z,10.87
2023-04-22T00:14:04.307Z,10.82
2023-04-22T00:15:05.196Z,10.75
2023-04-22T00:16:04.339Z,10.72
2023-04-22T00:17:05.233Z,10.62
2023-04-22T00:18:04.312Z,10.64
2023-04-22T00:19:04.271Z,10.55
2023-04-22T00:20:04.241Z,10.48
2023-04-22T00:21:04.326Z,10.46
2023-04-22T00:22:05.009Z,10.42
2023-04-22T00:23:04.251Z,10.39
2023-04-22T00:24:04.219Z,10.42
2023-04-22T00:25:05.222Z,10.41
2023-04-22T00:26:05.128Z,10.38
2023-04-22T00:27:05.036Z,10.38
2023-04-22T00:28:04.196Z,10.38
2023-04-22T00:29:04.187Z,10.35
2023-04-22T00:30:04.999Z,10.31
2023-04-22T00:31:05.227Z,10.28
2023-04-22T00:32:04.357Z,10.26
2023-04-22T00:33:04.400Z,10.18
2023-04-22T00:34:04.127Z,10.18
2023-04-22T00:35:04.174Z,10.14
2023-04-22T00:36:04.154Z,10.12
2023-04-22T00:37:04.149Z,10.09
2023-04-22T00:38:04.114Z,10.03
2023-04-22T00:39:04.125Z,10.01
2023-04-22T00:40:05.069Z,9.96
2023-04-22T00:41:04.108Z,9.93
2023-04-22T00:42:05.129Z,9.94
2023-04-22T00:43:04.075Z,9.94
2023-04-22T00:44:04.110Z,9.96
2023-04-22T00:45:04.070Z,9.94
2023-04-22T00:46:04.097Z,9.98
2023-04-22T00:47:04.208Z,9.96
2023-04-22T00:48:05.122Z,9.94
2023-04-22T00:49:04.975Z,9.91
2023-04-22T00:50:04.883Z,9.87
2023-04-22T00:51:05.032Z,9.84
2023-04-22T00:52:04.933Z,9.80
2023-04-22T00:53:04.037Z,9.73
2023-04-22T00:54:04.004Z,9.70
2023-04-22T00:55:04.922Z,9.66
2023-04-22T00:56:03.986Z,9.69
2023-04-22T00:57:04.006Z,9.70
2023-04-22T00:58:04.871Z,9.65
2023-04-22T00:59:03.990Z,9.65
2023-04-22T01:00:04.286Z,9.63
2023-04-22T01:01:04.882Z,9.59
2023-04-22T01:02:04.872Z,9.57
2023-04-22T01:03:04.153Z,9.54
2023-04-22T01:04:04.043Z,9.48
2023-04-22T01:05:04.716Z,9.47
2023-04-22T01:06:03.932Z,9.47
2023-04-22T01:07:04.802Z,9.47
2023-04-22T01:08:04.706Z,9.45
2023-04-22T01:09:04.839Z,9.42
2023-04-22T01:10:04.751Z,9.41
2023-04-22T01:11:04.919Z,9.34
2023-04-22T01:12:04.813Z,9.36
2023-04-22T01:13:04.714Z,9.36
2023-04-22T01:14:04.880Z,9.33
2023-04-22T01:15:05.168Z,9.29
2023-04-22T01:16:04.766Z,9.30
2023-04-22T01:17:03.934Z,9.33
2023-04-22T01:18:04.823Z,9.32
2023-04-22T01:19:04.653Z,9.29
2023-04-22T01:20:03.848Z,9.29
2023-04-22T01:21:04.716Z,9.27
2023-04-22T01:22:03.829Z,9.23
2023-04-22T01:23:04.777Z,9.32
2023-04-22T01:24:04.680Z,9.30
2023-04-22T01:25:03.815Z,9.33
2023-04-22T01:26:04.760Z,9.29
2023-04-22T01:27:04.532Z,9.26
2023-04-22T01:28:04.597Z,9.30
2023-04-22T01:29:04.713Z,9.27
2023-04-22T01:30:03.782Z,9.30
2023-04-22T01:31:04.515Z,9.32
2023-04-22T01:32:04.760Z,9.33
2023-04-22T01:33:03.852Z,9.36
2023-04-22T01:34:04.744Z,9.37
2023-04-22T01:35:03.729Z,9.37
2023-04-22T01:36:04.554Z,9.37
2023-04-22T01:37:03.768Z,9.40
2023-04-22T01:38:04.693Z,9.36
2023-04-22T01:39:04.667Z,9.37
2023-04-22T01:40:03.673Z,9.37
2023-04-22T01:41:03.705Z,9.37
2023-04-22T01:42:03.705Z,9.40
2023-04-22T01:43:03.679Z,9.40
2023-04-22T01:44:04.554Z,9.36
2023-04-22T01:45:04.457Z,9.33
2023-04-22T01:46:04.666Z,9.32
2023-04-22T01:47:04.523Z,9.36
2023-04-22T01:48:04.440Z,9.36
2023-04-22T01:49:03.626Z,9.34
2023-04-22T01:50:03.684Z,9.34
2023-04-22T01:51:04.394Z,9.37
2023-04-22T01:52:03.636Z,9.37
2023-04-22T01:53:03.608Z,9.34
2023-04-22T01:54:04.365Z,9.34
2023-04-22T01:55:04.519Z,9.34
2023-04-22T01:56:04.430Z,9.33
2023-04-22T01:57:04.586Z,9.37
2023-04-22T01:58:03.581Z,9.36
2023-04-22T01:59:04.397Z,9.36
2023-04-22T02:00:04.566Z,9.37
2023-04-22T02:01:04.501Z,9.40
2023-04-22T02:02:04.414Z,9.40
2023-04-22T02:03:04.666Z,9.41
2023-04-22T02:04:04.432Z,9.44
2023-04-22T02:05:04.387Z,9.45
2023-04-22T02:06:04.493Z,9.47
2023-04-22T02:07:04.392Z,9.48
2023-04-22T02:08:04.307Z,9.50
2023-04-22T02:09:04.466Z,9.51
2023-04-22T02:10:04.452Z,9.52
2023-04-22T02:11:04.272Z,9.50
2023-04-22T02:12:04.441Z,9.54
2023-04-22T02:13:04.354Z,9.50
2023-04-22T02:14:04.231Z,9.48
2023-04-22T02:15:04.447Z,9.47
2023-04-22T02:16:04.334Z,9.47
2023-04-22T02:17:03.498Z,9.48
2023-04-22T02:18:04.363Z,9.48
2023-04-22T02:19:04.266Z,9.50
2023-04-22T02:20:03.502Z,9.45
2023-04-22T02:21:03.408Z,9.51
2023-04-22T02:22:03.415Z,9.48
2023-04-22T02:23:04.398Z,9.50
2023-04-22T02:24:03.373Z,9.50
2023-04-22T02:25:03.368Z,9.50
2023-04-22T02:26:03.381Z,9.51
2023-04-22T02:27:04.270Z,9.51
2023-04-22T02:28:03.398Z,9.52
2023-04-22T02:29:03.393Z,9.54
2023-04-22T02:30:03.362Z,9.51
2023-04-22T02:31:03.354Z,9.54
2023-04-22T02:32:03.371Z,9.54
2023-04-22T02:33:03.383Z,9.55
2023-04-22T02:34:04.111Z,9.55
2023-04-22T02:35:04.287Z,9.55
2023-04-22T02:36:03.350Z,9.60
2023-04-22T02:37:03.309Z,9.62
2023-04-22T02:38:04.244Z,9.60
2023-04-22T02:39:03.308Z,9.60
2023-04-22T02:40:04.048Z,9.59
2023-04-22T02:41:04.198Z,9.62
2023-04-22T02:42:04.165Z,9.62
2023-04-22T02:43:04.263Z,9.63
2023-04-22T02:44:04.166Z,9.67
2023-04-22T02:45:03.239Z,9.67
2023-04-22T02:46:03.260Z,9.67
2023-04-22T02:47:03.319Z,9.67
2023-04-22T02:48:04.084Z,9.67
2023-04-22T02:49:04.199Z,9.66
2023-04-22T02:50:03.198Z,9.67
2023-04-22T02:51:04.006Z,9.67
2023-04-22T02:52:03.227Z,9.67
2023-04-22T02:53:03.166Z,9.69
2023-04-22T02:54:03.174Z,9.69
2023-04-22T02:55:04.135Z,9.69
2023-04-22T02:56:03.187Z,9.67
2023-04-22T02:57:03.153Z,9.67
2023-04-22T02:58:04.118Z,9.69
2023-04-22T02:59:03.140Z,9.72
2023-04-22T03:00:03.922Z,9.73
2023-04-22T03:01:04.186Z,9.72
2023-04-22T03:02:06.508Z,9.72
2023-04-22T03:03:03.998Z,9.72
2023-04-22T03:04:04.211Z,9.75
2023-04-22T03:05:03.094Z,9.73
2023-04-22T03:06:04.118Z,9.78
2023-04-22T03:07:03.087Z,9.83
2023-04-22T03:08:03.910Z,9.83
2023-04-22T03:09:03.072Z,9.84
2023-04-22T03:10:03.973Z,9.85
2023-04-22T03:11:03.881Z,9.85
2023-04-22T03:12:04.043Z,9.87
2023-04-22T03:13:03.971Z,9.88
2023-04-22T03:14:03.856Z,9.88
2023-04-22T03:15:04.004Z,9.91
2023-04-22T03:16:03.937Z,9.94
2023-04-22T03:17:03.273Z,9.91
2023-04-22T03:18:03.124Z,9.93
2023-04-22T03:19:02.997Z,9.96
2023-04-22T03:20:03.015Z,9.96
2023-04-22T03:21:02.996Z,9.99
2023-04-22T03:22:03.866Z,9.99
2023-04-22T03:23:02.966Z,10.02
2023-04-22T03:24:03.945Z,10.01
2023-04-22T03:25:03.818Z,10.01
2023-04-22T03:26:03.725Z,10.02
2023-04-22T03:27:02.968Z,10.02
2023-04-22T03:28:02.953Z,10.05
2023-04-22T03:29:03.948Z,10.02
2023-04-22T03:30:03.851Z,10.06
2023-04-22T03:31:02.929Z,10.08
2023-04-22T03:32:03.977Z,10.05
2023-04-22T03:33:02.962Z,10.05
2023-04-22T03:34:02.914Z,10.02
2023-04-22T03:35:03.885Z,10.06
2023-04-22T03:36:02.880Z,10.06
2023-04-22T03:37:03.695Z,10.05
2023-04-22T03:38:03.853Z,10.06
2023-04-22T03:39:03.752Z,10.03
2023-04-22T03:40:03.660Z,10.02
2023-04-22T03:41:02.850Z,9.99
2023-04-22T03:42:03.724Z,10.02
2023-04-22T03:43:03.652Z,10.02
2023-04-22T03:44:02.816Z,10.01
2023-04-22T03:45:02.835Z,10.03
2023-04-22T03:46:03.628Z,10.05
2023-04-22T03:47:03.762Z,10.03
2023-04-22T03:48:03.710Z,10.05
2023-04-22T03:49:02.788Z,10.03
2023-04-22T03:50:03.730Z,10.05
2023-04-22T03:51:02.764Z,10.08
2023-04-22T03:52:02.803Z,10.03
2023-04-22T03:53:02.775Z,10.05
2023-04-22T03:54:03.594Z,10.03
2023-04-22T03:55:02.738Z,10.05
2023-04-22T03:56:02.776Z,10.06
2023-04-22T03:57:03.560Z,10.06
2023-04-22T03:58:03.729Z,10.06
2023-04-22T03:59:03.646Z,10.01
2023-04-22T04:00:03.535Z,10.02
2023-04-22T04:01:02.716Z,10.05
2023-04-22T04:02:02.835Z,10.02
2023-04-22T04:03:02.905Z,9.99
2023-04-22T04:04:03.875Z,10.02
2023-04-22T04:05:02.909Z,9.99
2023-04-22T04:06:02.701Z,10.01
2023-04-22T04:07:02.687Z,10.02
2023-04-22T04:08:03.533Z,10.03
2023-04-22T04:09:03.429Z,10.06
2023-04-22T04:10:02.646Z,10.08
2023-04-22T04:11:03.522Z,10.09
2023-04-22T04:12:03.411Z,10.06
2023-04-22T04:13:03.576Z,10.08
2023-04-22T04:14:02.603Z,10.10
2023-04-22T04:15:03.638Z,10.14
2023-04-22T04:16:03.601Z,10.10
2023-04-22T04:17:02.609Z,10.12
2023-04-22T04:18:03.628Z,10.12
2023-04-22T04:19:02.712Z,10.20
2023-04-22T04:20:02.580Z,10.18
2023-04-22T04:21:02.530Z,10.18
2023-04-22T04:22:02.567Z,10.18
2023-04-22T04:23:02.571Z,10.23
2023-04-22T04:24:02.538Z,10.24
2023-04-22T04:25:03.427Z,10.26
2023-04-22T04:26:02.537Z,10.26
2023-04-22T04:27:02.521Z,10.27
2023-04-22T04:28:03.400Z,10.28
2023-04-22T04:29:02.506Z,10.28
2023-04-22T04:30:02.526Z,10.30
2023-04-22T04:31:03.378Z,10.36
2023-04-22T04:32:02.481Z,10.39
2023-04-22T04:33:03.563Z,10.42
2023-04-22T04:34:03.333Z,10.43
2023-04-22T04:35:02.477Z,10.42
2023-04-22T04:36:03.394Z,10.45
2023-04-22T04:37:02.471Z,10.45
2023-04-22T04:38:03.213Z,10.45
2023-04-22T04:39:02.439Z,10.46
2023-04-22T04:40:03.298Z,10.45
2023-04-22T04:41:03.452Z,10.48
2023-04-22T04:42:02.415Z,10.54
2023-04-22T04:43:02.555Z,10.49
2023-04-22T04:44:02.517Z,10.49
2023-04-22T04:45:02.481Z,10.54
2023-04-22T04:46:03.246Z,10.55
2023-04-22T04:47:02.427Z,10.60
2023-04-22T04:48:03.335Z,10.60
2023-04-22T04:49:02.682Z,10.60
2023-04-22T04:50:02.349Z,10.61
2023-04-22T04:51:03.232Z,10.61
2023-04-22T04:52:02.400Z,10.65
2023-04-22T04:53:02.340Z,10.62
2023-04-22T04:54:02.325Z,10.65
2023-04-22T04:55:03.124Z,10.64
2023-04-22T04:56:02.316Z,10.62
2023-04-22T04:57:02.313Z,10.62
2023-04-22T04:58:03.077Z,10.65
2023-04-22T04:59:03.243Z,10.67
2023-04-22T05:00:02.318Z,10.70
2023-04-22T05:01:03.044Z,10.65
2023-04-22T05:02:03.258Z,10.65
2023-04-22T05:03:03.259Z,10.68
2023-04-22T05:04:02.368Z,10.68
2023-04-22T05:05:02.391Z,10.68
2023-04-22T05:06:03.079Z,10.68
2023-04-22T05:07:03.237Z,10.72
2023-04-22T05:08:02.231Z,10.73
2023-04-22T05:09:03.047Z,10.78
2023-04-22T05:10:02.260Z,10.78
2023-04-22T05:11:03.110Z,10.79
2023-04-22T05:12:02.228Z,10.78
2023-04-22T05:13:04.261Z,10.80
2023-04-22T05:14:03.146Z,10.79
2023-04-22T05:15:02.998Z,10.83
2023-04-22T05:16:03.172Z,10.86
2023-04-22T05:17:03.055Z,10.82
2023-04-22T05:18:02.973Z,10.87
2023-04-22T05:19:02.153Z,10.87
2023-04-22T05:20:02.161Z,10.91
2023-04-22T05:21:02.928Z,10.94
2023-04-22T05:22:03.096Z,10.95
2023-04-22T05:23:03.026Z,11.00
2023-04-22T05:24:02.884Z,11.05
2023-04-22T05:25:03.048Z,11.04
2023-04-22T05:26:02.953Z,11.08
2023-04-22T05:27:02.869Z,11.12
2023-04-22T05:28:02.101Z,11.12
2023-04-22T05:29:02.075Z,11.15
2023-04-22T05:30:02.087Z,11.19
2023-04-22T05:31:03.038Z,11.20
2023-04-22T05:32:02.194Z,11.19
2023-04-22T05:33:03.096Z,11.23
2023-04-22T05:34:02.059Z,11.22
2023-04-22T05:35:02.043Z,11.25
2023-04-22T05:36:02.040Z,11.28
2023-04-22T05:37:02.921Z,11.30
2023-04-22T05:38:03.045Z,11.34
2023-04-22T05:40:14.270Z,11.40
2023-04-22T05:42:39.107Z,11.48
2023-04-22T05:43:39.107Z,11.52
2023-04-22T05:44:39.096Z,11.54
2023-04-22T05:45:39.149Z,11.59
2023-04-22T05:46:39.147Z,11.62
2023-04-22T05:47:39.088Z,11.64
2023-04-22T05:48:39.056Z,11.73
2023-04-22T05:49:39.344Z,11.77
2023-04-22T05:50:39.051Z,11.84
2023-04-22T05:51:39.065Z,11.89
2023-04-22T05:52:39.086Z,11.95
2023-04-22T05:53:39.091Z,12.04
2023-04-22T05:54:39.118Z,12.08
2023-04-22T05:55:39.125Z,12.10
2023-04-22T05:56:39.049Z,12.18
2023-04-22T05:57:39.183Z,12.25
2023-04-22T05:58:39.030Z,12.32
2023-04-22T05:59:39.474Z,12.40
2023-04-22T06:00:39.088Z,12.46
2023-04-22T06:01:39.117Z,12.51
2023-04-22T06:02:39.333Z,12.58
2023-04-22T06:03:39.378Z,12.66
2023-04-22T06:04:39.598Z,12.68
2023-04-22T06:05:39.297Z,12.69
2023-04-22T06:06:39.260Z,12.71
2023-04-22T06:07:39.275Z,12.80
2023-04-22T06:08:39.280Z,12.80
2023-04-22T06:09:39.549Z,12.87
2023-04-22T06:10:38.921Z,12.90
2023-04-22T06:11:38.967Z,12.95
2023-04-22T06:12:39.039Z,12.96
2023-04-22T06:13:38.896Z,12.96
2023-04-22T06:14:38.921Z,13.02
2023-04-22T06:15:38.939Z,13.05
2023-04-22T06:16:39.240Z,13.08
2023-04-22T06:17:38.914Z,13.14
2023-04-22T06:18:38.926Z,13.27
2023-04-22T06:19:39.092Z,13.35
2023-04-22T06:20:38.948Z,13.40
2023-04-22T06:21:38.967Z,13.46
2023-04-22T06:22:38.954Z,13.55
2023-04-22T06:23:38.935Z,13.60
2023-04-22T06:24:38.970Z,13.71
2023-04-22T06:25:38.977Z,13.78
2023-04-22T06:26:38.995Z,13.93
2023-04-22T06:27:39.024Z,14.09
2023-04-22T06:28:39.139Z,14.16
2023-04-22T06:29:39.334Z,14.26
2023-04-22T06:30:38.792Z,14.34
2023-04-22T06:31:39.170Z,14.36
2023-04-22T06:32:38.986Z,14.44
2023-04-22T06:33:39.032Z,14.48
2023-04-22T06:34:39.072Z,14.55
2023-04-22T06:35:38.772Z,14.86
2023-04-22T06:36:39.148Z,14.99
2023-04-22T06:37:38.784Z,15.11
2023-04-22T06:38:38.783Z,15.14
2023-04-22T06:39:38.925Z,15.22
2023-04-22T06:40:38.726Z,15.26
2023-04-22T06:41:40.831Z,15.29
2023-04-22T06:42:38.833Z,15.33
2023-04-22T06:43:38.908Z,15.35
2023-04-22T06:44:38.703Z,15.35
2023-04-22T06:45:39.036Z,15.36
2023-04-22T06:46:39.152Z,15.38
2023-04-22T06:47:38.713Z,15.48
2023-04-22T06:48:39.162Z,15.54
2023-04-22T06:49:39.117Z,15.59
2023-04-22T06:50:39.378Z,15.72
2023-04-22T06:51:39.287Z,15.81
2023-04-22T06:52:38.870Z,15.87
2023-04-22T06:53:39.296Z,16.02
2023-04-22T06:54:38.954Z,16.13
2023-04-22T06:55:38.655Z,16.24
2023-04-22T06:56:38.698Z,16.43
2023-04-22T06:57:38.630Z,16.55
2023-04-22T06:58:38.692Z,16.61
2023-04-22T06:59:39.069Z,16.73
2023-04-22T07:00:38.793Z,16.83
2023-04-22T07:01:38.830Z,16.77
2023-04-22T07:02:38.680Z,16.76
2023-04-22T07:03:38.685Z,16.80
2023-04-22T07:04:40.141Z,16.91
2023-04-22T07:05:39.782Z,17.02
2023-04-22T07:06:38.587Z,16.99
2023-04-22T07:07:38.609Z,17.09
2023-04-22T07:08:38.548Z,17.14
2023-04-22T07:09:38.891Z,17.13
2023-04-22T07:10:38.694Z,17.20
2023-04-22T07:11:38.720Z,17.24
2023-04-22T07:12:38.520Z,17.32
2023-04-22T07:13:38.480Z,17.39
2023-04-22T07:14:38.920Z,17.41
2023-04-22T07:15:38.994Z,17.46
2023-04-22T07:16:38.513Z,17.50
2023-04-22T07:17:38.780Z,17.50
2023-04-22T07:18:39.044Z,17.54
2023-04-22T07:19:38.845Z,17.63
2023-04-22T07:20:39.110Z,17.66
2023-04-22T07:21:38.657Z,17.65
2023-04-22T07:22:39.449Z,17.68
2023-04-22T07:23:39.067Z,17.76
2023-04-22T07:24:39.021Z,17.76
2023-04-22T07:25:38.637Z,17.76
2023-04-22T07:26:38.689Z,17.81
2023-04-22T07:27:39.143Z,17.86
2023-04-22T07:28:38.381Z,17.86
2023-04-22T07:29:38.640Z,17.90
2023-04-22T07:30:38.367Z,17.94
2023-04-22T07:31:39.403Z,17.99
2023-04-22T07:32:38.584Z,18.08
2023-04-22T07:33:38.945Z,18.15
2023-04-22T07:34:38.402Z,18.18
2023-04-22T07:35:38.340Z,18.17
2023-04-22T07:36:38.352Z,18.06
2023-04-22T07:37:38.336Z,18.01
2023-04-22T07:38:38.454Z,17.99
2023-04-22T07:39:38.731Z,18.05
2023-04-22T07:40:38.451Z,18.05
2023-04-22T07:41:38.442Z,18.06
2023-04-22T07:42:38.345Z,18.05
2023-04-22T07:43:38.682Z,18.02
2023-04-22T07:44:39.604Z,18.06
2023-04-22T07:45:38.306Z,18.08
2023-04-22T07:46:38.416Z,18.03
2023-04-22T07:47:38.391Z,18.01
2023-04-22T07:48:39.193Z,17.96
2023-04-22T07:49:39.039Z,17.88
2023-04-22T07:50:38.933Z,17.83
2023-04-22T07:51:38.657Z,17.79
2023-04-22T07:52:38.273Z,17.78
2023-04-22T07:53:38.336Z,17.81
2023-04-22T07:54:38.225Z,17.88
2023-04-22T07:55:38.250Z,17.86
2023-04-22T07:56:38.319Z,17.90
2023-04-22T07:57:38.171Z,17.94
2023-04-22T07:58:38.151Z,17.99
2023-04-22T07:59:38.434Z,18.12
2023-04-22T08:00:38.636Z,18.30
2023-04-22T08:01:38.588Z,18.30
2023-04-22T08:02:38.768Z,18.38
2023-04-22T08:03:38.398Z,18.42
2023-04-22T08:04:38.239Z,18.46
2023-04-22T08:05:38.179Z,18.51
2023-04-22T08:06:38.224Z,18.57
2023-04-22T08:07:38.274Z,18.57
2023-04-22T08:08:38.356Z,18.63
2023-04-22T08:09:38.552Z,18.64
2023-04-22T08:10:38.486Z,18.66
2023-04-22T08:11:38.237Z,18.71
2023-04-22T08:12:38.318Z,18.71
2023-04-22T08:13:38.089Z,18.81
2023-04-22T08:14:38.059Z,18.94
2023-04-22T08:15:38.237Z,18.94
2023-04-22T08:16:38.590Z,19.00
2023-04-22T08:17:38.794Z,19.04
2023-04-22T08:18:38.072Z,19.08
2023-04-22T08:19:38.416Z,19.07
2023-04-22T08:20:38.337Z,18.94
2023-04-22T08:21:38.744Z,18.91
2023-04-22T08:22:38.412Z,19.07
2023-04-22T08:23:38.876Z,19.08
2023-04-22T08:24:38.900Z,19.19
2023-04-22T08:25:38.275Z,19.41
2023-04-22T08:26:38.916Z,19.63
2023-04-22T08:27:38.362Z,19.75
2023-04-22T08:28:39.023Z,19.89
2023-04-22T08:29:39.215Z,19.87
2023-04-22T08:30:38.712Z,19.93
2023-04-22T08:31:38.912Z,20.00
2023-04-22T08:32:38.947Z,20.04
2023-04-22T08:33:38.788Z,20.05
2023-04-22T08:34:38.966Z,20.04
2023-04-22T08:35:37.928Z,20.05
2023-04-22T08:36:37.967Z,20.07
2023-04-22T08:37:38.024Z,20.27
2023-04-22T08:38:37.943Z,20.33
2023-04-22T08:39:38.352Z,20.29
2023-04-22T08:40:37.920Z,20.37
2023-04-22T08:41:38.254Z,20.46
2023-04-22T08:42:38.310Z,20.46
2023-04-22T08:43:37.852Z,20.50
2023-04-22T08:44:37.858Z,20.58
2023-04-22T08:45:37.863Z,20.73
2023-04-22T08:46:39.358Z,20.90
2023-04-22T08:47:37.918Z,21.04
2023-04-22T08:48:37.897Z,21.05
2023-04-22T08:49:38.069Z,21.03
2023-04-22T08:50:37.903Z,20.86
2023-04-22T08:51:37.826Z,20.82
2023-04-22T08:52:37.869Z,20.70
2023-04-22T08:53:37.909Z,20.56
2023-04-22T08:54:37.992Z,20.67
2023-04-22T08:55:38.025Z,20.60
2023-04-22T08:56:38.027Z,20.37
2023-04-22T08:57:37.944Z,20.46
2023-04-22T08:58:38.044Z,20.48
2023-04-22T08:59:38.391Z,20.55
2023-04-22T09:00:37.762Z,20.70
2023-04-22T09:01:37.789Z,20.77
2023-04-22T09:02:37.778Z,20.92
2023-04-22T09:03:37.906Z,21.00
2023-04-22T09:04:39.215Z,20.88
2023-04-22T09:05:37.927Z,20.88
2023-04-22T09:06:37.778Z,21.00
2023-04-22T09:07:38.083Z,20.98
2023-04-22T09:08:38.168Z,21.04
2023-04-22T09:09:38.397Z,20.88
2023-04-22T09:10:38.229Z,20.93
2023-04-22T09:11:37.912Z,20.95
2023-04-22T09:12:38.060Z,20.97
2023-04-22T09:13:38.246Z,21.10
2023-04-22T09:14:39.100Z,21.32
2023-04-22T09:15:38.048Z,21.34
2023-04-22T09:16:37.718Z,21.37
2023-04-22T09:17:38.111Z,21.40
2023-04-22T09:18:38.178Z,21.48
2023-04-22T09:19:38.099Z,21.48
2023-04-22T09:20:37.992Z,21.35
2023-04-22T09:21:37.674Z,21.41
2023-04-22T09:22:38.350Z,21.63
2023-04-22T09:23:38.034Z,21.59
2023-04-22T09:24:37.670Z,21.63
2023-04-22T09:25:37.846Z,21.78
2023-04-22T09:26:38.408Z,21.94
2023-04-22T09:27:38.405Z,21.81
2023-04-22T09:28:37.695Z,21.90
2023-04-22T09:29:37.955Z,21.85
2023-04-22T09:30:37.605Z,21.77
2023-04-22T09:31:37.550Z,21.80
2023-04-22T09:32:37.535Z,21.73
2023-04-22T09:33:37.650Z,21.82
2023-04-22T09:34:37.667Z,21.91
2023-04-22T09:35:38.960Z,21.81
2023-04-22T09:36:37.954Z,21.81
2023-04-22T09:37:46.518Z,21.90
2023-04-22T09:38:37.743Z,21.94
2023-04-22T09:39:37.876Z,21.98
2023-04-22T09:40:37.867Z,21.94
2023-04-22T09:41:37.464Z,21.75
2023-04-22T09:42:37.532Z,21.82
2023-04-22T09:43:38.240Z,21.94
2023-04-22T09:44:37.922Z,22.16
2023-04-22T09:45:37.673Z,22.28
2023-04-22T09:46:37.431Z,22.37
2023-04-22T09:47:37.487Z,22.51
2023-04-22T09:48:37.454Z,22.56
2023-04-22T09:49:37.826Z,22.62
2023-04-22T09:50:37.504Z,22.59
2023-04-22T09:51:37.424Z,22.64
2023-04-22T09:52:37.373Z,22.49
2023-04-22T09:53:37.448Z,22.53
2023-04-22T09:54:37.943Z,22.64
2023-04-22T09:55:37.385Z,22.74
2023-04-22T09:56:37.546Z,22.78
2023-04-22T09:57:37.421Z,22.66
2023-04-22T09:58:37.741Z,22.71
2023-04-22T09:59:37.555Z,22.61
2023-04-22T10:00:37.307Z,22.61
2023-04-22T10:01:37.368Z,22.55
2023-04-22T10:02:37.374Z,22.67
2023-04-22T10:03:37.400Z,22.55
2023-04-22T10:04:38.047Z,22.41
2023-04-22T10:05:37.342Z,22.49
2023-04-22T10:06:37.441Z,22.78
2023-04-22T10:07:37.401Z,22.77
2023-04-22T10:08:37.407Z,22.64
2023-04-22T10:09:37.723Z,22.66
2023-04-22T10:10:37.407Z,22.53
2023-04-22T10:11:37.466Z,22.48
2023-04-22T10:12:37.364Z,22.62
2023-04-22T10:13:37.481Z,22.61
2023-04-22T10:14:37.512Z,22.61
2023-04-22T10:15:37.498Z,22.66
2023-04-22T10:16:37.490Z,22.70
2023-04-22T10:17:37.335Z,22.68
2023-04-22T10:18:37.512Z,22.66
2023-04-22T10:19:37.743Z,22.77
2023-04-22T10:20:37.538Z,22.73
2023-04-22T10:21:37.565Z,22.67
2023-04-22T10:22:37.569Z,22.68
2023-04-22T10:23:37.590Z,22.78
2023-04-22T10:24:38.047Z,22.77
2023-04-22T10:25:37.604Z,22.88
2023-04-22T10:26:37.329Z,22.99
2023-04-22T10:27:37.133Z,23.13
2023-04-22T10:28:37.219Z,23.28
2023-04-22T10:29:37.127Z,23.31
2023-04-22T10:30:37.117Z,23.26
2023-04-22T10:31:37.127Z,23.36
2023-04-22T10:32:37.272Z,23.52
2023-04-22T10:33:37.323Z,23.78
2023-04-22T10:34:37.652Z,23.98
2023-04-22T10:35:37.184Z,24.13
2023-04-22T10:36:37.114Z,24.07
2023-04-22T10:37:37.219Z,23.92
2023-04-22T10:38:37.061Z,23.79
2023-04-22T10:39:37.226Z,23.67
2023-04-22T10:40:37.233Z,23.96
2023-04-22T10:41:37.091Z,24.18
2023-04-22T10:42:37.272Z,24.36
2023-04-22T10:43:37.012Z,24.48
2023-04-22T10:44:37.025Z,24.21
2023-04-22T10:45:37.006Z,24.03
2023-04-22T10:46:37.072Z,23.91
2023-04-22T10:47:37.069Z,24.08
2023-04-22T10:48:37.022Z,24.47
2023-04-22T10:49:37.132Z,24.58
2023-04-22T10:50:36.991Z,24.47
2023-04-22T10:51:37.068Z,24.43
2023-04-22T10:52:37.082Z,24.63
2023-04-22T10:53:36.957Z,24.90
2023-04-22T10:54:37.141Z,25.38
2023-04-22T10:55:37.055Z,25.59
2023-04-22T10:56:39.072Z,25.85
2023-04-22T10:57:36.979Z,25.86
2023-04-22T10:58:36.887Z,25.90
2023-04-22T10:59:37.264Z,25.86
2023-04-22T11:00:51.736Z,25.70
2023-04-22T11:01:37.274Z,25.61
2023-04-22T11:02:37.143Z,25.61
2023-04-22T11:03:37.107Z,25.63
2023-04-22T11:04:36.983Z,25.86
2023-04-22T11:05:37.270Z,25.89
2023-04-22T11:06:37.293Z,26.21
2023-04-22T11:07:36.848Z,26.23
2023-04-22T11:08:37.253Z,26.20
2023-04-22T11:09:36.976Z,26.28
2023-04-22T11:10:37.370Z,26.60
2023-04-22T11:11:37.368Z,26.45
2023-04-22T11:12:37.365Z,26.41
2023-04-22T11:13:37.388Z,26.38
2023-04-22T11:14:37.398Z,26.27
2023-04-22T11:15:37.415Z,26.15
2023-04-22T11:16:37.105Z,26.30
2023-04-22T11:17:36.872Z,26.39
2023-04-22T11:18:36.876Z,26.36
2023-04-22T11:19:36.970Z,26.53
2023-04-22T11:20:36.771Z,26.70
2023-04-22T11:21:37.281Z,26.63
2023-04-22T11:22:37.486Z,26.73
2023-04-22T11:23:37.547Z,26.79
2023-04-22T11:24:37.539Z,26.97
2023-04-22T11:25:36.710Z,26.64
2023-04-22T11:26:36.697Z,26.70
2023-04-22T11:27:36.765Z,26.39
2023-04-22T11:28:36.820Z,26.30
2023-04-22T11:29:37.010Z,26.39
2023-04-22T11:30:36.673Z,26.39
2023-04-22T11:31:36.757Z,26.34
2023-04-22T11:32:36.710Z,26.31
2023-04-22T11:33:36.751Z,26.31
2023-04-22T11:34:37.110Z,26.42
2023-04-22T11:35:37.155Z,26.49
2023-04-22T11:36:36.633Z,26.36
2023-04-22T11:37:36.640Z,26.12
2023-04-22T11:38:36.904Z,25.67
2023-04-22T11:41:02.576Z,25.88
2023-04-22T11:42:02.779Z,26.07
2023-04-22T11:43:02.596Z,26.36
2023-04-22T11:44:02.712Z,26.67
2023-04-22T11:45:02.919Z,26.85
2023-04-22T11:46:02.939Z,26.83
2023-04-22T11:47:02.541Z,26.64
2023-04-22T11:48:02.952Z,26.28
2023-04-22T11:49:02.619Z,25.96
2023-04-22T11:50:02.536Z,25.96
2023-04-22T11:51:02.939Z,25.98
2023-04-22T11:52:02.983Z,25.90
2023-04-22T11:53:02.609Z,25.96
2023-04-22T11:54:02.583Z,25.75
2023-04-22T11:55:02.674Z,25.90
2023-04-22T11:56:02.503Z,25.93
2023-04-22T11:57:03.994Z,25.96
2023-04-22T11:58:04.201Z,25.88
2023-04-22T11:59:02.528Z,26.19
2023-04-22T12:00:03.474Z,26.80
2023-04-22T12:01:02.607Z,27.23
2023-04-22T12:02:03.083Z,27.50
2023-04-22T12:03:03.110Z,27.63
2023-04-22T12:04:02.758Z,27.58
2023-04-22T12:05:02.454Z,27.88
2023-04-22T12:06:02.630Z,27.69
2023-04-22T12:07:02.409Z,27.90
2023-04-22T12:08:02.864Z,28.22
2023-04-22T12:09:02.376Z,28.16
2023-04-22T12:10:02.396Z,28.53
2023-04-22T12:11:02.388Z,28.71
2023-04-22T12:12:02.903Z,28.22
2023-04-22T12:13:02.486Z,28.28
2023-04-22T12:14:02.690Z,28.50
2023-04-22T12:15:02.493Z,28.49
2023-04-22T12:16:02.814Z,28.75
2023-04-22T12:17:02.961Z,28.89
2023-04-22T12:18:02.346Z,29.31
2023-04-22T12:19:03.142Z,29.49
2023-04-22T12:20:02.333Z,29.12
2023-04-22T12:21:02.352Z,29.28
2023-04-22T12:22:02.469Z,29.39
2023-04-22T12:23:02.270Z,29.36
2023-04-22T12:24:02.434Z,28.98
2023-04-22T12:25:02.500Z,29.24
2023-04-22T12:26:02.376Z,29.34
2023-04-22T12:27:02.388Z,29.12
2023-04-22T12:28:02.499Z,29.19
2023-04-22T12:29:02.307Z,29.40
2023-04-22T12:30:02.504Z,29.41
2023-04-22T12:31:02.286Z,29.41
2023-04-22T12:32:02.642Z,29.61
2023-04-22T12:33:02.636Z,29.59
2023-04-22T12:34:02.307Z,29.54
2023-04-22T12:35:02.751Z,29.39
2023-04-22T12:36:02.752Z,29.66
2023-04-22T12:37:02.341Z,29.74
2023-04-22T12:38:02.198Z,29.78
2023-04-22T12:39:02.219Z,29.91
2023-04-22T12:40:02.775Z,29.91
2023-04-22T12:41:02.996Z,29.68
2023-04-22T12:42:02.828Z,29.61
2023-04-22T12:43:02.180Z,29.68
2023-04-22T12:44:02.260Z,29.65
2023-04-22T12:45:02.508Z,29.17
2023-04-22T12:46:02.450Z,29.04
2023-04-22T12:47:02.614Z,28.86
2023-04-22T12:48:02.842Z,28.59
2023-04-22T12:49:02.323Z,28.32
2023-04-22T12:50:02.239Z,27.61
2023-04-22T12:51:02.126Z,27.31
2023-04-22T12:52:02.110Z,27.26
2023-04-22T12:53:02.263Z,27.05
2023-04-22T12:54:02.294Z,26.97
2023-04-22T12:55:02.374Z,27.01
2023-04-22T12:56:02.083Z,27.30
2023-04-22T12:57:02.193Z,27.50
2023-04-22T12:58:02.107Z,27.60
2023-04-22T12:59:02.332Z,27.25
2023-04-22T13:00:02.532Z,26.93
2023-04-22T13:01:02.724Z,26.67
2023-04-22T13:02:02.546Z,26.57